createdAt,value
2023-02-19T00:00:59.204Z,3.93
2023-02-19T00:01:59.180Z,3.97
2023-02-19T00:02:59.216Z,4.02
2023-02-19T00:03:59.995Z,4.00
2023-02-19T00:04:59.219Z,4.02
2023-02-19T00:05:59.158Z,4.02
2023-02-19T00:06:59.131Z,4.04
2023-02-19T00:07:59.174Z,4.05
2023-02-19T00:08:59.130Z,4.02
2023-02-19T00:09:59.092Z,4.02
2023-02-19T00:10:59.086Z,3.97
2023-02-19T00:11:59.081Z,4.04
2023-02-19T00:12:59.121Z,4.05
2023-02-19T00:13:59.064Z,4.06
2023-02-19T00:14:59.046Z,4.04
2023-02-19T00:15:59.097Z,4.02
2023-02-19T00:16:59.032Z,3.96
2023-02-19T00:17:59.021Z,4.02
2023-02-19T00:18:59.002Z,4.06
2023-02-19T00:19:58.992Z,4.08
2023-02-19T00:20:58.992Z,4.06
2023-02-19T00:21:59.422Z,4.06
2023-02-19T00:22:58.953Z,4.09
2023-02-19T00:23:58.962Z,4.11
2023-02-19T00:24:58.942Z,4.14
2023-02-19T00:26:06.007Z,4.09
2023-02-19T00:26:59.950Z,4.09
2023-02-19T00:27:58.913Z,4.06
2023-02-19T00:28:58.909Z,4.06
2023-02-19T00:29:58.923Z,4.12
2023-02-19T00:30:58.964Z,4.16
2023-02-19T00:31:58.982Z,4.20
2023-02-19T00:32:58.876Z,4.18
2023-02-19T00:33:58.860Z,4.14
2023-02-19T00:34:58.835Z,4.12
2023-02-19T00:35:58.828Z,4.11
2023-02-19T00:36:58.830Z,4.15
2023-02-19T00:37:58.807Z,4.18
2023-02-19T00:38:58.821Z,4.22
2023-02-19T00:39:58.789Z,4.22
2023-02-19T00:40:58.772Z,4.22
2023-02-19T00:41:58.800Z,4.22
2023-02-19T00:42:58.751Z,4.22
2023-02-19T00:43:58.761Z,4.24
2023-02-19T00:44:58.731Z,4.23
2023-02-19T00:45:58.762Z,4.27
2023-02-19T00:46:58.721Z,4.26
2023-02-19T00:47:58.709Z,4.26
2023-02-19T00:48:58.701Z,4.24
2023-02-19T00:49:58.692Z,4.26
2023-02-19T00:50:58.744Z,4.27
2023-02-19T00:51:58.661Z,4.27
2023-02-19T00:52:58.651Z,4.24
2023-02-19T00:53:58.644Z,4.23
2023-02-19T00:54:58.634Z,4.29
2023-02-19T00:55:58.624Z,4.24
2023-02-19T00:56:58.616Z,4.24
2023-02-19T00:57:58.616Z,4.22
2023-02-19T00:58:58.584Z,4.20
2023-02-19T00:59:58.589Z,4.23
2023-02-19T01:00:58.565Z,4.24
2023-02-19T01:01:58.674Z,4.18
2023-02-19T01:02:58.544Z,4.16
2023-02-19T01:03:58.544Z,4.14
2023-02-19T01:04:58.582Z,4.08
2023-02-19T01:05:58.518Z,3.98
2023-02-19T01:06:58.506Z,3.91
2023-02-19T01:07:58.953Z,3.84
2023-02-19T01:08:58.490Z,3.79
2023-02-19T01:09:58.481Z,3.80
2023-02-19T01:10:58.456Z,3.80
2023-02-19T01:11:58.475Z,3.78
2023-02-19T01:12:58.449Z,3.76
2023-02-19T01:13:58.443Z,3.79
2023-02-19T01:14:58.413Z,3.79
2023-02-19T01:15:58.441Z,3.75
2023-02-19T01:16:59.204Z,3.70
2023-02-19T01:17:58.382Z,3.69
2023-02-19T01:18:58.377Z,3.69
2023-02-19T01:19:58.362Z,3.58
2023-02-19T01:20:58.495Z,3.65
2023-02-19T01:21:58.343Z,3.70
2023-02-19T01:22:58.331Z,3.75
2023-02-19T01:23:58.347Z,3.73
2023-02-19T01:24:58.303Z,3.72
2023-02-19T01:25:58.753Z,3.69
2023-02-19T01:26:58.282Z,3.66
2023-02-19T01:27:58.274Z,3.60
2023-02-19T01:28:58.291Z,3.57
2023-02-19T01:29:58.446Z,3.58
2023-02-19T01:30:58.377Z,3.55
2023-02-19T01:31:58.340Z,3.57
2023-02-19T01:32:58.222Z,3.57
2023-02-19T01:33:58.214Z,3.55
2023-02-19T01:34:58.677Z,3.55
2023-02-19T01:35:58.197Z,3.60
2023-02-19T01:36:58.176Z,3.61
2023-02-19T01:37:58.185Z,3.60
2023-02-19T01:38:58.165Z,3.60
2023-02-19T01:39:58.159Z,3.58
2023-02-19T01:40:58.129Z,3.57
2023-02-19T01:41:58.149Z,3.55
2023-02-19T01:42:58.118Z,3.55
2023-02-19T01:43:58.125Z,3.61
2023-02-19T01:44:58.100Z,3.66
2023-02-19T01:45:58.088Z,3.68
2023-02-19T01:46:58.079Z,3.79
2023-02-19T01:47:58.069Z,3.79
2023-02-19T01:48:58.051Z,3.80
2023-02-19T01:49:58.070Z,3.76
2023-02-19T01:50:58.031Z,3.79
2023-02-19T01:51:58.043Z,3.78
2023-02-19T01:52:58.010Z,3.73
2023-02-19T01:53:58.003Z,3.69
2023-02-19T01:54:57.988Z,3.65
2023-02-19T01:55:57.987Z,3.61
2023-02-19T01:56:57.960Z,3.58
2023-02-19T01:57:57.984Z,3.57
2023-02-19T01:58:57.956Z,3.52
2023-02-19T01:59:57.953Z,3.48
2023-02-19T02:00:57.963Z,3.51
2023-02-19T02:01:57.942Z,3.50
2023-02-19T02:02:57.895Z,3.48
2023-02-19T02:03:57.906Z,3.47
2023-02-19T02:04:57.874Z,3.50
2023-02-19T02:05:57.885Z,3.54
2023-02-19T02:06:57.864Z,3.60
2023-02-19T02:07:57.854Z,3.58
2023-02-19T02:08:57.864Z,3.57
2023-02-19T02:09:57.837Z,3.57
2023-02-19T02:10:57.843Z,3.52
2023-02-19T02:11:57.816Z,3.51
2023-02-19T02:12:57.825Z,3.47
2023-02-19T02:13:57.796Z,3.45
2023-02-19T02:14:57.778Z,3.47
2023-02-19T02:15:57.810Z,3.52
2023-02-19T02:16:57.758Z,3.51
2023-02-19T02:17:57.765Z,3.54
2023-02-19T02:18:57.729Z,3.55
2023-02-19T02:19:57.750Z,3.62
2023-02-19T02:20:57.709Z,3.69
2023-02-19T02:21:57.717Z,3.66
2023-02-19T02:22:57.691Z,3.70
2023-02-19T02:23:57.701Z,3.65
2023-02-19T02:24:57.679Z,3.62
2023-02-19T02:25:57.668Z,3.58
2023-02-19T02:26:57.651Z,3.60
2023-02-19T02:27:57.652Z,3.66
2023-02-19T02:28:57.624Z,3.69
2023-02-19T02:29:57.646Z,3.72
2023-02-19T02:30:57.723Z,3.78
2023-02-19T02:31:57.744Z,3.78
2023-02-19T02:32:57.584Z,3.83
2023-02-19T02:33:57.599Z,3.88
2023-02-19T02:34:57.565Z,3.88
2023-02-19T02:35:57.576Z,3.86
2023-02-19T02:36:57.556Z,3.86
2023-02-19T02:37:57.544Z,3.93
2023-02-19T02:38:57.795Z,3.91
2023-02-19T02:39:57.537Z,3.91
2023-02-19T02:40:57.507Z,3.90
2023-02-19T02:41:57.515Z,3.91
2023-02-19T02:42:57.483Z,3.98
2023-02-19T02:43:57.497Z,4.00
2023-02-19T02:44:57.466Z,3.98
2023-02-19T02:45:57.486Z,3.94
2023-02-19T02:46:57.446Z,3.94
2023-02-19T02:47:57.448Z,3.90
2023-02-19T02:48:57.418Z,3.87
2023-02-19T02:49:57.418Z,3.83
2023-02-19T02:50:57.396Z,3.84
2023-02-19T02:51:57.547Z,3.80
2023-02-19T02:52:57.375Z,3.80
2023-02-19T02:53:57.389Z,3.80
2023-02-19T02:54:57.365Z,3.76
2023-02-19T02:55:57.357Z,3.76
2023-02-19T02:56:57.350Z,3.88
2023-02-19T02:57:57.327Z,4.06
2023-02-19T02:58:57.312Z,4.12
2023-02-19T02:59:57.311Z,4.18
2023-02-19T03:00:57.330Z,4.18
2023-02-19T03:01:57.316Z,4.14
2023-02-19T03:02:57.280Z,4.11
2023-02-19T03:03:57.267Z,4.06
2023-02-19T03:04:57.246Z,4.00
2023-02-19T03:05:57.258Z,4.02
2023-02-19T03:06:57.219Z,3.97
2023-02-19T03:07:57.222Z,3.93
2023-02-19T03:08:57.198Z,3.93
2023-02-19T03:09:57.216Z,3.91
2023-02-19T03:10:57.185Z,3.91
2023-02-19T03:11:57.182Z,3.88
2023-02-19T03:12:57.170Z,3.86
2023-02-19T03:13:57.166Z,3.73
2023-02-19T03:14:57.149Z,3.69
2023-02-19T03:15:57.133Z,3.75
2023-02-19T03:16:57.113Z,3.73
2023-02-19T03:17:57.113Z,3.73
2023-02-19T03:18:57.090Z,3.69
2023-02-19T03:19:57.101Z,3.68
2023-02-19T03:20:57.081Z,3.66
2023-02-19T03:21:57.071Z,3.70
2023-02-19T03:22:57.049Z,3.69
2023-02-19T03:23:57.840Z,3.66
2023-02-19T03:24:57.039Z,3.65
2023-02-19T03:25:57.044Z,3.61
2023-02-19T03:26:57.027Z,3.60
2023-02-19T03:27:57.008Z,3.54
2023-02-19T03:28:56.992Z,3.52
2023-02-19T03:29:56.989Z,3.52
2023-02-19T03:30:56.980Z,3.50
2023-02-19T03:31:57.099Z,3.51
2023-02-19T03:32:56.943Z,3.54
2023-02-19T03:33:56.941Z,3.57
2023-02-19T03:34:56.930Z,3.54
2023-02-19T03:35:56.952Z,3.52
2023-02-19T03:36:56.921Z,3.50
2023-02-19T03:37:56.910Z,3.48
2023-02-19T03:38:56.889Z,3.45
2023-02-19T03:39:56.881Z,3.42
2023-02-19T03:40:56.861Z,3.51
2023-02-19T03:41:57.232Z,3.57
2023-02-19T03:42:56.850Z,3.62
2023-02-19T03:43:56.832Z,3.80
2023-02-19T03:44:56.844Z,3.97
2023-02-19T03:45:56.884Z,4.00
2023-02-19T03:46:56.807Z,4.05
2023-02-19T03:47:56.823Z,4.12
2023-02-19T03:48:56.787Z,4.18
2023-02-19T03:49:56.772Z,4.29
2023-02-19T03:50:56.753Z,4.40
2023-02-19T03:51:56.771Z,4.44
2023-02-19T03:52:56.744Z,4.47
2023-02-19T03:53:56.733Z,4.47
2023-02-19T03:54:56.744Z,4.51
2023-02-19T03:55:56.717Z,4.52
2023-02-19T03:56:56.699Z,4.58
2023-02-19T03:57:56.716Z,4.70
2023-02-19T03:58:56.698Z,4.72
2023-02-19T03:59:56.668Z,4.77
2023-02-19T04:00:56.649Z,4.75
2023-02-19T04:01:57.327Z,4.70
2023-02-19T04:02:56.629Z,4.66
2023-02-19T04:03:56.645Z,4.66
2023-02-19T04:04:56.772Z,4.65
2023-02-19T04:05:56.611Z,4.63
2023-02-19T04:06:56.591Z,4.55
2023-02-19T04:07:56.601Z,4.52
2023-02-19T04:08:56.573Z,4.47
2023-02-19T04:09:56.587Z,4.48
2023-02-19T04:10:56.563Z,4.51
2023-02-19T04:11:56.552Z,4.54
2023-02-19T04:12:56.535Z,4.54
2023-02-19T04:13:56.530Z,4.60
2023-02-19T04:14:56.504Z,4.67
2023-02-19T04:15:56.522Z,4.70
2023-02-19T04:16:56.502Z,4.73
2023-02-19T04:17:56.494Z,4.85
2023-02-19T04:18:56.475Z,4.85
2023-02-19T04:19:56.465Z,4.86
2023-02-19T04:20:56.445Z,4.86
2023-02-19T04:21:56.474Z,4.85
2023-02-19T04:22:56.437Z,4.82
2023-02-19T04:23:57.210Z,4.78
2023-02-19T04:24:56.425Z,4.78
2023-02-19T04:25:56.410Z,4.72
2023-02-19T04:26:56.407Z,4.77
2023-02-19T04:27:56.377Z,4.80
2023-02-19T04:28:56.375Z,4.85
2023-02-19T04:29:56.357Z,4.88
2023-02-19T04:30:56.398Z,4.86
2023-02-19T04:31:56.397Z,4.88
2023-02-19T04:32:56.336Z,4.88
2023-02-19T04:33:56.309Z,4.86
2023-02-19T04:34:56.307Z,4.89
2023-02-19T04:35:56.293Z,4.88
2023-02-19T04:36:56.316Z,4.88
2023-02-19T04:37:56.266Z,4.89
2023-02-19T04:38:56.254Z,4.86
2023-02-19T04:39:56.234Z,4.89
2023-02-19T04:40:56.244Z,4.91
2023-02-19T04:41:56.230Z,4.86
2023-02-19T04:42:56.225Z,4.85
2023-02-19T04:43:56.217Z,4.86
2023-02-19T04:44:56.199Z,4.86
2023-02-19T04:45:56.219Z,4.86
2023-02-19T04:46:56.878Z,4.86
2023-02-19T04:47:56.166Z,4.88
2023-02-19T04:48:56.154Z,4.91
2023-02-19T04:49:56.136Z,4.89
2023-02-19T04:50:56.137Z,4.88
2023-02-19T04:51:56.194Z,4.92
2023-02-19T04:52:56.155Z,4.96
2023-02-19T04:53:56.094Z,5.03
2023-02-19T04:54:56.118Z,5.04
2023-02-19T04:55:56.075Z,5.13
2023-02-19T04:56:56.074Z,5.18
2023-02-19T04:57:56.046Z,5.20
2023-02-19T04:58:56.055Z,5.15
2023-02-19T04:59:56.038Z,5.18
2023-02-19T05:00:56.828Z,5.20
2023-02-19T05:01:56.028Z,5.18
2023-02-19T05:02:56.007Z,5.24
2023-02-19T05:03:55.987Z,5.22
2023-02-19T05:04:55.997Z,5.22
2023-02-19T05:05:55.987Z,5.25
2023-02-19T05:06:55.987Z,5.25
2023-02-19T05:07:55.947Z,5.35
2023-02-19T05:08:55.951Z,5.38
2023-02-19T05:09:55.928Z,5.40
2023-02-19T05:10:55.930Z,5.42
2023-02-19T05:11:55.907Z,5.46
2023-02-19T05:12:57.968Z,5.45
2023-02-19T05:13:55.896Z,5.46
2023-02-19T05:14:55.886Z,5.49
2023-02-19T05:15:55.900Z,5.54
2023-02-19T05:16:55.871Z,5.54
2023-02-19T05:17:55.860Z,5.58
2023-02-19T05:18:55.844Z,5.60
2023-02-19T05:19:55.830Z,5.61
2023-02-19T05:20:55.820Z,5.57
2023-02-19T05:21:55.814Z,5.57
2023-02-19T05:22:55.809Z,5.60
2023-02-19T05:23:55.791Z,5.60
2023-02-19T05:24:55.783Z,5.63
2023-02-19T05:25:55.764Z,5.65
2023-02-19T05:26:55.770Z,5.68
2023-02-19T05:27:55.742Z,5.68
2023-02-19T05:28:55.732Z,5.67
2023-02-19T05:29:55.721Z,5.65
2023-02-19T05:30:55.807Z,5.67
2023-02-19T05:31:55.787Z,5.68
2023-02-19T05:32:55.710Z,5.68
2023-02-19T05:33:55.689Z,5.72
2023-02-19T05:34:55.685Z,5.75
2023-02-19T05:35:55.740Z,5.78
2023-02-19T05:36:55.699Z,5.76
2023-02-19T05:37:55.640Z,5.75
2023-02-19T05:38:55.646Z,5.78
2023-02-19T05:39:55.623Z,5.82
2023-02-19T05:40:55.625Z,5.83
2023-02-19T05:41:55.605Z,5.83
2023-02-19T05:42:55.595Z,5.85
2023-02-19T05:43:55.570Z,5.86
2023-02-19T05:44:55.581Z,5.85
2023-02-19T05:45:55.579Z,5.85
2023-02-19T05:46:55.559Z,5.85
2023-02-19T05:47:55.543Z,5.89
2023-02-19T05:48:55.673Z,5.93
2023-02-19T05:49:55.511Z,5.97
2023-02-19T05:50:55.519Z,5.99
2023-02-19T05:51:55.498Z,6.01
2023-02-19T05:52:55.507Z,6.01
2023-02-19T05:53:55.473Z,6.01
2023-02-19T05:54:55.467Z,6.01
2023-02-19T05:55:56.128Z,6.06
2023-02-19T05:56:55.466Z,6.11
2023-02-19T05:57:55.431Z,6.11
2023-02-19T05:58:55.422Z,6.12
2023-02-19T05:59:55.417Z,6.12
2023-02-19T06:00:55.468Z,6.14
2023-02-19T06:01:55.396Z,6.11
2023-02-19T06:02:55.476Z,6.11
2023-02-19T06:03:57.385Z,6.09
2023-02-19T06:04:55.394Z,6.15
2023-02-19T06:05:55.336Z,6.15
2023-02-19T06:06:55.345Z,6.19
2023-02-19T06:07:55.332Z,6.17
2023-02-19T06:08:55.325Z,6.17
2023-02-19T06:09:55.292Z,6.15
2023-02-19T06:10:55.291Z,6.14
2023-02-19T06:11:55.325Z,6.14
2023-02-19T06:12:55.281Z,6.14
2023-02-19T06:13:55.261Z,6.12
2023-02-19T06:14:55.270Z,6.15
2023-02-19T06:15:55.255Z,6.15
2023-02-19T06:16:55.233Z,6.15
2023-02-19T06:17:55.213Z,6.18
2023-02-19T06:18:55.266Z,6.21
2023-02-19T06:19:55.212Z,6.27
2023-02-19T06:20:55.194Z,6.30
2023-02-19T06:21:55.195Z,6.33
2023-02-19T06:22:55.166Z,6.36
2023-02-19T06:23:55.148Z,6.34
2023-02-19T06:24:55.155Z,6.37
2023-02-19T06:25:55.124Z,6.36
2023-02-19T06:26:55.125Z,6.37
2023-02-19T06:27:55.105Z,6.36
2023-02-19T06:28:55.104Z,6.34
2023-02-19T06:29:55.089Z,6.34
2023-02-19T06:30:55.088Z,6.36
2023-02-19T06:31:55.239Z,6.34
2023-02-19T06:32:55.120Z,6.30
2023-02-19T06:33:55.091Z,6.30
2023-02-19T06:34:55.082Z,6.25
2023-02-19T06:35:55.034Z,6.22
2023-02-19T06:36:55.042Z,6.22
2023-02-19T06:37:55.001Z,6.22
2023-02-19T06:38:54.992Z,6.25
2023-02-19T06:39:54.994Z,6.30
2023-02-19T06:40:54.983Z,6.31
2023-02-19T06:41:54.963Z,6.31
2023-02-19T06:42:55.000Z,6.34
2023-02-19T06:43:54.944Z,6.33
2023-02-19T06:44:54.935Z,6.36
2023-02-19T06:45:54.934Z,6.38
2023-02-19T06:46:54.960Z,6.38
2023-02-19T06:47:54.961Z,6.36
2023-02-19T06:48:54.887Z,6.34
2023-02-19T06:49:54.875Z,6.31
2023-02-19T06:50:54.866Z,6.28
2023-02-19T06:51:54.862Z,6.25
2023-02-19T06:52:54.936Z,6.27
2023-02-19T06:53:54.859Z,6.22
2023-02-19T06:54:54.829Z,6.18
2023-02-19T06:55:54.813Z,6.15
2023-02-19T06:56:54.853Z,6.17
2023-02-19T06:57:55.458Z,6.17
2023-02-19T06:58:54.807Z,6.18
2023-02-19T06:59:54.777Z,6.18
2023-02-19T07:00:54.842Z,6.21
2023-02-19T07:01:54.752Z,6.25
2023-02-19T07:02:54.790Z,6.27
2023-02-19T07:03:54.835Z,6.31
2023-02-19T07:04:54.751Z,6.30
2023-02-19T07:05:55.353Z,6.34
2023-02-19T07:06:54.722Z,6.37
2023-02-19T07:07:54.683Z,6.37
2023-02-19T07:08:54.684Z,6.43
2023-02-19T07:09:55.641Z,6.48
2023-02-19T07:10:54.656Z,6.55
2023-02-19T07:11:54.656Z,6.58
2023-02-19T07:12:54.644Z,6.59
2023-02-19T07:13:54.616Z,6.61
2023-02-19T07:14:54.609Z,6.62
2023-02-19T07:15:54.595Z,6.66
2023-02-19T07:16:54.592Z,6.62
2023-02-19T07:17:54.580Z,6.66
2023-02-19T07:18:54.582Z,6.67
2023-02-19T07:19:54.595Z,6.70
2023-02-19T07:20:54.577Z,6.71
2023-02-19T07:21:54.557Z,6.73
2023-02-19T07:22:54.554Z,6.79
2023-02-19T07:23:54.509Z,6.81
2023-02-19T07:24:54.506Z,6.84
2023-02-19T07:25:54.478Z,6.85
2023-02-19T07:26:54.488Z,6.94
2023-02-19T07:27:54.468Z,6.95
2023-02-19T07:28:54.458Z,7.03
2023-02-19T07:29:54.467Z,7.06
2023-02-19T07:30:54.466Z,7.12
2023-02-19T07:31:54.495Z,7.16
2023-02-19T07:32:54.419Z,7.21
2023-02-19T07:33:54.410Z,7.25
2023-02-19T07:34:54.390Z,7.28
2023-02-19T07:35:54.391Z,7.32
2023-02-19T07:36:54.387Z,7.32
2023-02-19T07:37:54.366Z,7.39
2023-02-19T07:38:54.364Z,7.43
2023-02-19T07:39:54.343Z,7.46
2023-02-19T07:40:54.341Z,7.46
2023-02-19T07:41:54.333Z,7.55
2023-02-19T07:42:54.329Z,7.61
2023-02-19T07:43:54.307Z,7.67
2023-02-19T07:44:54.287Z,7.85
2023-02-19T07:45:54.453Z,7.93
2023-02-19T07:46:54.367Z,7.97
2023-02-19T07:47:54.281Z,8.02
2023-02-19T07:48:54.285Z,8.12
2023-02-19T07:49:54.240Z,8.25
2023-02-19T07:50:54.236Z,8.30
2023-02-19T07:51:54.243Z,8.38
2023-02-19T07:52:54.208Z,8.43
2023-02-19T07:53:54.199Z,8.53
2023-02-19T07:54:54.189Z,8.59
2023-02-19T07:55:54.179Z,8.68
2023-02-19T07:56:54.175Z,8.71
2023-02-19T07:57:54.150Z,8.80
2023-02-19T07:58:54.148Z,8.89
2023-02-19T07:59:54.184Z,8.91
2023-02-19T08:00:54.153Z,8.94
2023-02-19T08:01:54.110Z,8.94
2023-02-19T08:02:54.104Z,8.92
2023-02-19T08:03:54.107Z,8.89
2023-02-19T08:04:54.083Z,8.89
2023-02-19T08:05:54.085Z,8.92
2023-02-19T08:06:54.064Z,8.91
2023-02-19T08:07:54.123Z,8.89
2023-02-19T08:08:56.211Z,8.92
2023-02-19T08:09:54.016Z,8.89
2023-02-19T08:10:54.026Z,8.91
2023-02-19T08:11:53.994Z,8.89
2023-02-19T08:12:53.995Z,8.87
2023-02-19T08:13:53.974Z,8.84
2023-02-19T08:14:53.975Z,8.83
2023-02-19T08:15:56.285Z,8.83
2023-02-19T08:16:54.008Z,8.83
2023-02-19T08:17:53.941Z,8.80
2023-02-19T08:18:53.985Z,8.76
2023-02-19T08:19:53.915Z,8.71
2023-02-19T08:20:53.915Z,8.74
2023-02-19T08:21:53.903Z,8.76
2023-02-19T08:22:53.898Z,8.74
2023-02-19T08:23:53.898Z,8.73
2023-02-19T08:24:53.868Z,8.74
2023-02-19T08:25:53.856Z,8.79
2023-02-19T08:26:53.848Z,8.80
2023-02-19T08:27:53.829Z,8.83
2023-02-19T08:28:54.634Z,8.81
2023-02-19T08:29:53.807Z,8.80
2023-02-19T08:30:53.856Z,8.79
2023-02-19T08:31:53.818Z,8.80
2023-02-19T08:32:53.793Z,8.80
2023-02-19T08:33:53.779Z,8.84
2023-02-19T08:34:53.771Z,8.91
2023-02-19T08:35:53.753Z,8.89
2023-02-19T08:36:53.759Z,8.92
2023-02-19T08:37:53.729Z,8.91
2023-02-19T08:38:57.387Z,8.89
2023-02-19T08:39:53.707Z,8.94
2023-02-19T08:40:53.700Z,8.94
2023-02-19T08:41:53.701Z,8.98
2023-02-19T08:42:53.701Z,8.99
2023-02-19T08:43:53.702Z,8.98
2023-02-19T08:44:53.649Z,9.01
2023-02-19T08:45:53.700Z,9.08
2023-02-19T08:46:53.632Z,9.13
2023-02-19T08:47:53.629Z,9.14
2023-02-19T08:48:53.605Z,9.14
2023-02-19T08:49:53.605Z,9.18
2023-02-19T08:50:53.592Z,9.20
2023-02-19T08:51:53.580Z,9.20
2023-02-19T08:52:53.580Z,9.26
2023-02-19T08:53:53.563Z,9.26
2023-02-19T08:54:53.538Z,9.29
2023-02-19T08:55:53.551Z,9.36
2023-02-19T08:56:53.521Z,9.43
2023-02-19T08:57:53.523Z,9.48
2023-02-19T08:58:53.563Z,9.50
2023-02-19T08:59:53.501Z,9.54
2023-02-19T09:00:53.476Z,9.56
2023-02-19T09:01:54.294Z,9.60
2023-02-19T09:02:53.459Z,9.61
2023-02-19T09:03:53.524Z,9.60
2023-02-19T09:04:53.448Z,9.65
2023-02-19T09:05:53.446Z,9.74
2023-02-19T09:06:53.416Z,9.78
2023-02-19T09:07:53.514Z,9.78
2023-02-19T09:08:53.394Z,9.81
2023-02-19T09:09:53.392Z,9.78
2023-02-19T09:10:53.379Z,9.84
2023-02-19T09:11:53.373Z,9.87
2023-02-19T09:12:53.344Z,9.97
2023-02-19T09:13:53.355Z,10.04
2023-02-19T09:14:53.336Z,10.08
2023-02-19T09:15:53.336Z,10.17
2023-02-19T09:16:53.306Z,10.20
2023-02-19T09:17:53.736Z,10.25
2023-02-19T09:18:53.584Z,10.32
2023-02-19T09:19:53.295Z,10.34
2023-02-19T09:20:53.285Z,10.32
2023-02-19T09:21:53.257Z,10.23
2023-02-19T09:22:53.238Z,10.14
2023-02-19T09:23:53.240Z,10.08
2023-02-19T09:24:53.219Z,10.12
2023-02-19T09:25:53.303Z,10.08
2023-02-19T09:26:53.199Z,10.08
2023-02-19T09:27:53.202Z,10.02
2023-02-19T09:28:53.194Z,9.99
2023-02-19T09:29:53.176Z,9.99
2023-02-19T09:30:53.173Z,9.99
2023-02-19T09:31:53.169Z,10.01
2023-02-19T09:32:53.143Z,10.02
2023-02-19T09:33:53.142Z,10.05
2023-02-19T09:34:53.127Z,10.05
2023-02-19T09:35:53.118Z,10.05
2023-02-19T09:36:53.096Z,10.05
2023-02-19T09:37:53.085Z,10.05
2023-02-19T09:38:53.065Z,10.12
2023-02-19T09:39:53.086Z,10.12
2023-02-19T09:40:53.056Z,10.15
2023-02-19T09:41:53.046Z,10.18
2023-02-19T09:42:53.046Z,10.22
2023-02-19T09:43:53.027Z,10.26
2023-02-19T09:44:53.008Z,10.27
2023-02-19T09:45:53.033Z,10.33
2023-02-19T09:46:52.987Z,10.40
2023-02-19T09:47:52.978Z,10.44
2023-02-19T09:48:52.970Z,10.45
2023-02-19T09:49:52.957Z,10.52
2023-02-19T09:50:52.948Z,10.55
2023-02-19T09:51:52.949Z,10.56
2023-02-19T09:52:52.948Z,10.60
2023-02-19T09:53:52.914Z,10.66
2023-02-19T09:54:52.889Z,10.70
2023-02-19T09:55:52.904Z,10.73
2023-02-19T09:56:52.879Z,10.76
2023-02-19T09:57:52.888Z,10.84
2023-02-19T09:58:52.861Z,10.82
2023-02-19T09:59:52.840Z,10.85
2023-02-19T10:00:52.827Z,10.89
2023-02-19T10:01:52.855Z,10.92
2023-02-19T10:02:52.800Z,10.97
2023-02-19T10:03:52.811Z,11.03
2023-02-19T10:04:52.826Z,11.04
2023-02-19T10:05:53.180Z,11.00
2023-02-19T10:06:52.760Z,11.03
2023-02-19T10:07:52.760Z,11.09
2023-02-19T10:08:52.741Z,11.18
2023-02-19T10:09:52.740Z,11.27
2023-02-19T10:10:52.719Z,11.28
2023-02-19T10:11:52.725Z,11.29
2023-02-19T10:12:52.698Z,11.35
2023-02-19T10:13:52.692Z,11.40
2023-02-19T10:14:52.704Z,11.40
2023-02-19T10:15:52.722Z,11.43
2023-02-19T10:16:52.647Z,11.42
2023-02-19T10:17:52.653Z,11.40
2023-02-19T10:18:52.635Z,11.49
2023-02-19T10:19:52.624Z,11.44
2023-02-19T10:20:52.607Z,11.49
2023-02-19T10:21:52.603Z,11.46
2023-02-19T10:22:52.584Z,11.55
2023-02-19T10:23:52.614Z,11.62
2023-02-19T10:24:52.574Z,11.67
2023-02-19T10:25:52.554Z,11.70
2023-02-19T10:26:52.570Z,11.75
2023-02-19T10:27:52.555Z,11.80
2023-02-19T10:28:52.524Z,11.78
2023-02-19T10:29:52.546Z,11.82
2023-02-19T10:30:52.508Z,11.86
2023-02-19T10:31:52.563Z,11.83
2023-02-19T10:32:52.467Z,11.90
2023-02-19T10:33:52.476Z,11.91
2023-02-19T10:34:52.457Z,11.96
2023-02-19T10:35:52.460Z,12.09
2023-02-19T10:36:52.454Z,12.24
2023-02-19T10:37:52.442Z,12.31
2023-02-19T10:38:52.409Z,12.34
2023-02-19T10:39:52.430Z,12.34
2023-02-19T10:40:52.403Z,12.42
2023-02-19T10:41:52.390Z,12.53
2023-02-19T10:42:52.371Z,12.53
2023-02-19T10:43:52.386Z,12.56
2023-02-19T10:44:52.356Z,12.45
2023-02-19T10:45:52.345Z,12.41
2023-02-19T10:46:52.797Z,12.49
2023-02-19T10:47:52.346Z,12.57
2023-02-19T10:48:52.424Z,12.62
2023-02-19T10:49:52.312Z,12.67
2023-02-19T10:50:52.294Z,12.75
2023-02-19T10:51:52.274Z,12.62
2023-02-19T10:52:52.275Z,12.62
2023-02-19T10:53:52.265Z,12.64
2023-02-19T10:54:52.246Z,12.68
2023-02-19T10:55:52.256Z,12.78
2023-02-19T10:56:52.232Z,12.89
2023-02-19T10:57:53.008Z,12.74
2023-02-19T10:58:52.196Z,12.75
2023-02-19T10:59:52.197Z,12.83
2023-02-19T11:00:52.177Z,12.86
2023-02-19T11:01:52.199Z,12.77
2023-02-19T11:02:52.157Z,12.70
2023-02-19T11:03:52.175Z,12.74
2023-02-19T11:04:52.143Z,12.75
2023-02-19T11:05:52.141Z,12.70
2023-02-19T11:06:52.108Z,12.59
2023-02-19T11:07:52.118Z,12.49
2023-02-19T11:08:52.092Z,12.45
2023-02-19T11:09:52.079Z,12.54
2023-02-19T11:10:52.077Z,12.62
2023-02-19T11:11:52.081Z,12.79
2023-02-19T11:12:52.080Z,13.03
2023-02-19T11:13:52.067Z,13.29
2023-02-19T11:14:52.025Z,13.33
2023-02-19T11:15:52.102Z,13.30
2023-02-19T11:16:52.047Z,13.14
2023-02-19T11:17:52.002Z,13.17
2023-02-19T11:18:51.981Z,13.15
2023-02-19T11:19:51.980Z,13.17
2023-02-19T11:20:51.960Z,13.22
2023-02-19T11:21:51.963Z,13.30
2023-02-19T11:22:52.042Z,13.32
2023-02-19T11:23:51.945Z,13.28
2023-02-19T11:24:55.703Z,13.32
2023-02-19T11:25:51.922Z,13.25
2023-02-19T11:26:51.898Z,13.05
2023-02-19T11:27:51.904Z,12.86
2023-02-19T11:28:51.875Z,12.78
2023-02-19T11:29:51.884Z,12.75
2023-02-19T11:30:51.952Z,12.74
2023-02-19T11:31:51.991Z,12.62
2023-02-19T11:32:51.836Z,12.52
2023-02-19T11:33:51.844Z,12.50
2023-02-19T11:34:51.824Z,12.49
2023-02-19T11:35:51.809Z,12.47
2023-02-19T11:36:51.795Z,12.39
2023-02-19T11:37:51.799Z,12.34
2023-02-19T11:38:51.778Z,12.34
2023-02-19T11:39:51.969Z,12.29
2023-02-19T11:40:51.751Z,12.27
2023-02-19T11:41:51.741Z,12.32
2023-02-19T11:42:51.734Z,12.31
2023-02-19T11:43:51.730Z,12.29
2023-02-19T11:44:51.801Z,12.28
2023-02-19T11:45:51.704Z,12.14
2023-02-19T11:46:51.703Z,12.13
2023-02-19T11:47:51.675Z,12.04
2023-02-19T11:48:51.667Z,11.83
2023-02-19T11:49:51.667Z,11.79
2023-02-19T11:50:51.661Z,11.73
2023-02-19T11:51:52.873Z,11.76
2023-02-19T11:52:52.442Z,11.67
2023-02-19T11:53:51.617Z,11.70
2023-02-19T11:54:51.708Z,11.75
2023-02-19T11:55:51.606Z,11.86
2023-02-19T11:56:51.576Z,11.90
2023-02-19T11:57:51.594Z,12.05
2023-02-19T11:58:51.563Z,12.09
2023-02-19T11:59:51.546Z,11.98
2023-02-19T12:00:51.549Z,11.99
2023-02-19T12:01:51.605Z,12.04
2023-02-19T12:02:51.525Z,12.10
2023-02-19T12:03:51.524Z,11.98
2023-02-19T12:04:51.523Z,12.01
2023-02-19T12:05:51.518Z,11.98
2023-02-19T12:06:51.499Z,11.98
2023-02-19T12:07:51.472Z,11.78
2023-02-19T12:08:51.448Z,11.70
2023-02-19T12:09:51.448Z,11.73
2023-02-19T12:10:51.440Z,11.83
2023-02-19T12:11:51.434Z,11.79
2023-02-19T12:12:51.413Z,11.80
2023-02-19T12:13:51.404Z,11.83
2023-02-19T12:14:51.402Z,11.94
2023-02-19T12:15:51.392Z,11.99
2023-02-19T12:16:51.362Z,12.02
2023-02-19T12:17:51.361Z,11.85
2023-02-19T12:18:51.352Z,11.65
2023-02-19T12:19:51.331Z,11.60
2023-02-19T12:20:51.321Z,11.57
2023-02-19T12:21:51.311Z,11.54
2023-02-19T12:22:51.301Z,11.43
2023-02-19T12:23:51.302Z,11.19
2023-02-19T12:24:51.290Z,11.21
2023-02-19T12:25:52.082Z,11.25
2023-02-19T12:26:51.274Z,11.29
2023-02-19T12:27:51.262Z,11.35
2023-02-19T12:28:51.233Z,11.44
2023-02-19T12:29:51.235Z,11.47
2023-02-19T12:30:51.227Z,11.42
2023-02-19T12:31:51.302Z,11.36
2023-02-19T12:32:51.197Z,11.35
2023-02-19T12:33:51.266Z,11.39
2023-02-19T12:34:51.164Z,11.43
2023-02-19T12:35:51.175Z,11.29
2023-02-19T12:36:51.147Z,11.25
2023-02-19T12:37:51.161Z,11.25
2023-02-19T12:38:51.477Z,11.25
2023-02-19T12:39:51.126Z,11.32
2023-02-19T12:40:51.114Z,11.42
2023-02-19T12:41:51.097Z,11.44
2023-02-19T12:42:51.243Z,11.54
2023-02-19T12:43:51.446Z,11.58
2023-02-19T12:44:51.120Z,11.61
2023-02-19T12:45:51.199Z,11.65
2023-02-19T12:46:51.155Z,11.73
2023-02-19T12:47:51.039Z,11.69
2023-02-19T12:48:51.018Z,11.69
2023-02-19T12:49:51.458Z,11.72
2023-02-19T12:50:51.011Z,11.58
2023-02-19T12:51:51.001Z,11.43
2023-02-19T12:52:51.033Z,11.35
2023-02-19T12:53:50.973Z,11.25
2023-02-19T12:54:50.954Z,11.21
2023-02-19T12:55:51.105Z,11.18
2023-02-19T12:56:50.956Z,11.14
2023-02-19T12:57:50.937Z,11.06
2023-02-19T12:58:50.926Z,11.04
2023-02-19T12:59:50.899Z,10.92
2023-02-19T13:00:51.072Z,10.89
2023-02-19T13:01:50.897Z,10.82
2023-02-19T13:02:50.888Z,10.91
2023-02-19T13:03:50.859Z,10.89
2023-02-19T13:04:50.867Z,10.92
2023-02-19T13:05:50.875Z,10.89
2023-02-19T13:06:51.011Z,10.92
2023-02-19T13:07:50.821Z,10.94
2023-02-19T13:09:05.953Z,11.03
2023-02-19T13:09:51.812Z,11.04
2023-02-19T13:10:51.705Z,11.03